sensor_id;sensor_type;location;lat;lon;timestamp;temperature;humidity
3134;DHT22;1577;49.912;10.924;2022-09-25T03:17:49;13.00;99.90
3134;DHT22;1577;49.912;10.924;2022-09-25T03:20:16;12.90;99.90
3134;DHT22;1577;49.912;10.924;2022-09-25T03:22:42;12.80;99.90
3134;DHT22;1577;49.912;10.924;2022-09-25T03:25:07;12.80;99.90
3134;DHT22;1577;49.912;10.924;2022-09-25T03:27:33;12.80;99.90
3134;DHT22;1577;49.912;10.924;2022-09-25T03:29:58;12.80;99.90
3134;DHT22;1577;49.912;10.924;2022-09-25T03:32:24;12.80;99.90
3134;DHT22;1577;49.912;10.924;2022-09-25T03:34:50;12.80;99.90
3134;DHT22;1577;49.912;10.924;2022-09-25T03:37:15;12.70;99.90
3134;DHT22;1577;49.912;10.924;2022-09-25T03:39:41;12.70;99.90
3134;DHT22;1577;49.912;10.924;2022-09-25T03:42:06;12.70;99.90
3134;DHT22;1577;49.912;10.924;2022-09-25T03:44:32;12.70;99.90
3134;DHT22;1577;49.912;10.924;2022-09-25T03:46:57;12.70;99.90
3134;DHT22;1577;49.912;10.924;2022-09-25T03:49:23;12.70;99.90
3134;DHT22;1577;49.912;10.924;2022-09-25T03:51:49;12.70;99.90
3134;DHT22;1577;49.912;10.924;2022-09-25T03:54:14;12.80;99.90
3134;DHT22;1577;49.912;10.924;2022-09-25T03:56:40;12.80;99.90
3134;DHT22;1577;49.912;10.924;2022-09-25T03:59:06;12.70;99.90
3134;DHT22;1577;49.912;10.924;2022-09-25T04:01:31;12.70;99.90
3134;DHT22;1577;49.912;10.924;2022-09-25T04:03:57;12.80;99.90
3134;DHT22;1577;49.912;10.924;2022-09-25T04:06:25;12.70;99.90
3134;DHT22;1577;49.912;10.924;2022-09-25T04:08:52;12.70;99.90
3134;DHT22;1577;49.912;10.924;2022-09-25T04:11:19;12.70;99.90
3134;DHT22;1577;49.912;10.924;2022-09-25T04:13:45;12.60;99.90
3134;DHT22;1577;49.912;10.924;2022-09-25T04:16:12;12.60;99.90
3134;DHT22;1577;49.912;10.924;2022-09-25T04:18:38;12.60;99.90
3134;DHT22;1577;49.912;10.924;2022-09-25T04:21:08;12.70;99.90
3134;DHT22;1577;49.912;10.924;2022-09-25T04:23:35;12.80;99.90
3134;DHT22;1577;49.912;10.924;2022-09-25T04:26:01;12.80;99.90
3134;DHT22;1577;49.912;10.924;2022-09-25T04:28:26;12.80;99.90
3134;DHT22;1577;49.912;10.924;2022-09-25T04:30:52;12.80;99.90
3134;DHT22;1577;49.912;10.924;2022-09-25T04:33:18;12.90;99.90
3134;DHT22;1577;49.912;10.924;2022-09-25T04:36:03;12.90;99.90
3134;DHT22;1577;49.912;10.924;2022-09-25T04:38:29;12.90;99.90
3134;DHT22;1577;49.912;10.924;2022-09-25T04:40:58;12.80;99.90
3134;DHT22;1577;49.912;10.924;2022-09-25T04:43:26;12.80;99.90
3134;DHT22;1577;49.912;10.924;2022-09-25T04:45:52;12.90;99.90
3134;DHT22;1577;49.912;10.924;2022-09-25T04:48:17;12.80;99.90
3134;DHT22;1577;49.912;10.924;2022-09-25T04:50:47;12.80;99.90
3134;DHT22;1577;49.912;10.924;2022-09-25T04:53:13;12.80;99.90
3134;DHT22;1577;49.912;10.924;2022-09-25T04:55:39;12.90;99.90
3134;DHT22;1577;49.912;10.924;2022-09-25T04:58:05;12.90;99.90
3134;DHT22;1577;49.912;10.924;2022-09-25T05:00:31;12.90;99.90
3134;DHT22;1577;49.912;10.924;2022-09-25T05:02:57;12.90;99.90
3134;DHT22;1577;49.912;10.924;2022-09-25T05:05:23;12.80;99.90
3134;DHT22;1577;49.912;10.924;2022-09-25T05:07:57;12.80;99.90
3134;DHT22;1577;49.912;10.924;2022-09-25T05:10:25;12.80;99.90
3134;DHT22;1577;49.912;10.924;2022-09-25T05:13:01;12.80;99.90
3134;DHT22;1577;49.912;10.924;2022-09-25T05:15:29;12.80;99.90
3134;DHT22;1577;49.912;10.924;2022-09-25T05:18:25;12.80;99.90
3134;DHT22;1577;49.912;10.924;2022-09-25T05:20:51;12.80;99.90
3134;DHT22;1577;49.912;10.924;2022-09-25T05:23:18;12.80;99.90
3134;DHT22;1577;49.912;10.924;2022-09-25T05:25:54;13.00;99.90
3134;DHT22;1577;49.912;10.924;2022-09-25T05:28:22;13.10;99.90
3134;DHT22;1577;49.912;10.924;2022-09-25T05:30:49;13.10;99.90
3134;DHT22;1577;49.912;10.924;2022-09-25T05:33:15;13.10;99.90
3134;DHT22;1577;49.912;10.924;2022-09-25T05:35:40;13.20;99.90
3134;DHT22;1577;49.912;10.924;2022-09-25T05:38:06;13.20;99.90
3134;DHT22;1577;49.912;10.924;2022-09-25T05:40:33;13.20;99.90
3134;DHT22;1577;49.912;10.924;2022-09-25T05:42:58;13.20;99.90
3134;DHT22;1577;49.912;10.924;2022-09-25T05:45:24;13.30;99.90
3134;DHT22;1577;49.912;10.924;2022-09-25T05:48:06;13.20;99.90
3134;DHT22;1577;49.912;10.924;2022-09-25T05:50:32;13.30;99.90
3134;DHT22;1577;49.912;10.924;2022-09-25T05:53:00;13.40;99.90
3134;DHT22;1577;49.912;10.924;2022-09-25T05:55:26;13.40;99.90
3134;DHT22;1577;49.912;10.924;2022-09-25T05:57:52;13.50;99.90
3134;DHT22;1577;49.912;10.924;2022-09-25T06:00:18;13.40;99.90
3134;DHT22;1577;49.912;10.924;2022-09-25T06:02:44;13.40;99.90
3134;DHT22;1577;49.912;10.924;2022-09-25T06:05:09;13.50;99.90
3134;DHT22;1577;49.912;10.924;2022-09-25T06:07:36;13.60;99.90
3134;DHT22;1577;49.912;10.924;2022-09-25T06:10:02;13.60;99.90
3134;DHT22;1577;49.912;10.924;2022-09-25T06:12:30;13.70;99.90
3134;DHT22;1577;49.912;10.924;2022-09-25T06:14:56;13.80;99.90
3134;DHT22;1577;49.912;10.924;2022-09-25T06:17:22;13.80;99.90
3134;DHT22;1577;49.912;10.924;2022-09-25T06:19:47;13.80;99.90
3134;DHT22;1577;49.912;10.924;2022-09-25T06:22:13;13.80;99.90
3134;DHT22;1577;49.912;10.924;2022-09-25T06:24:39;13.80;99.90
3134;DHT22;1577;49.912;10.924;2022-09-25T06:27:06;13.90;99.90
3134;DHT22;1577;49.912;10.924;2022-09-25T06:29:32;13.80;99.90
3134;DHT22;1577;49.912;10.924;2022-09-25T06:31:57;13.90;99.90
3134;DHT22;1577;49.912;10.924;2022-09-25T06:34:23;13.90;99.90
3134;DHT22;1577;49.912;10.924;2022-09-25T06:36:48;13.90;99.90
3134;DHT22;1577;49.912;10.924;2022-09-25T06:39:14;14.00;99.90
3134;DHT22;1577;49.912;10.924;2022-09-25T06:41:40;14.00;99.90
3134;DHT22;1577;49.912;10.924;2022-09-25T06:44:06;14.10;99.90
3134;DHT22;1577;49.912;10.924;2022-09-25T06:46:33;14.10;99.90
3134;DHT22;1577;49.912;10.924;2022-09-25T06:48:59;14.20;99.90
3134;DHT22;1577;49.912;10.924;2022-09-25T06:51:25;14.20;99.90
3134;DHT22;1577;49.912;10.924;2022-09-25T06:53:56;14.20;99.90
3134;DHT22;1577;49.912;10.924;2022-09-25T06:56:22;14.20;99.90
3134;DHT22;1577;49.912;10.924;2022-09-25T06:58:47;14.20;99.90
3134;DHT22;1577;49.912;10.924;2022-09-25T07:01:13;14.30;99.90
3134;DHT22;1577;49.912;10.924;2022-09-25T07:03:39;14.30;99.90
3134;DHT22;1577;49.912;10.924;2022-09-25T07:08:40;14.40;99.90
3134;DHT22;1577;49.912;10.924;2022-09-25T07:11:11;14.40;99.90
3134;DHT22;1577;49.912;10.924;2022-09-25T07:13:37;14.40;99.90
3134;DHT22;1577;49.912;10.924;2022-09-25T07:16:05;14.50;99.90
3134;DHT22;1577;49.912;10.924;2022-09-25T07:18:32;14.50;99.90
3134;DHT22;1577;49.912;10.924;2022-09-25T07:21:23;14.60;99.90
3134;DHT22;1577;49.912;10.924;2022-09-25T07:23:50;14.70;99.90
3134;DHT22;1577;49.912;10.924;2022-09-25T07:26:21;14.80;99.90
3134;DHT22;1577;49.912;10.924;2022-09-25T07:28:52;14.80;99.90
3134;DHT22;1577;49.912;10.924;2022-09-25T07:31:22;14.90;99.90
3134;DHT22;1577;49.912;10.924;2022-09-25T07:33:48;15.00;99.90
3134;DHT22;1577;49.912;10.924;2022-09-25T07:36:15;15.10;99.90
3134;DHT22;1577;49.912;10.924;2022-09-25T07:38:41;15.20;99.90
3134;DHT22;1577;49.912;10.924;2022-09-25T07:41:09;15.30;99.90
3134;DHT22;1577;49.912;10.924;2022-09-25T07:43:36;15.40;99.90
3134;DHT22;1577;49.912;10.924;2022-09-25T07:46:05;15.40;99.90
3134;DHT22;1577;49.912;10.924;2022-09-25T07:48:31;15.30;99.90
3134;DHT22;1577;49.912;10.924;2022-09-25T07:51:00;15.30;99.90
3134;DHT22;1577;49.912;10.924;2022-09-25T07:53:26;15.40;99.90
3134;DHT22;1577;49.912;10.924;2022-09-25T07:55:56;15.50;99.90
3134;DHT22;1577;49.912;10.924;2022-09-25T07:58:22;15.60;99.90
3134;DHT22;1577;49.912;10.924;2022-09-25T08:00:47;15.80;99.90
3134;DHT22;1577;49.912;10.924;2022-09-25T08:03:13;15.90;99.90
3134;DHT22;1577;49.912;10.924;2022-09-25T08:05:38;15.90;99.90
3134;DHT22;1577;49.912;10.924;2022-09-25T08:08:04;16.00;99.90
3134;DHT22;1577;49.912;10.924;2022-09-25T08:10:30;16.10;99.90
3134;DHT22;1577;49.912;10.924;2022-09-25T08:12:56;16.00;99.90
3134;DHT22;1577;49.912;10.924;2022-09-25T08:15:22;16.10;99.90
3134;DHT22;1577;49.912;10.924;2022-09-25T08:17:47;16.10;99.90
3134;DHT22;1577;49.912;10.924;2022-09-25T08:20:13;16.10;99.90
3134;DHT22;1577;49.912;10.924;2022-09-25T08:22:39;16.20;99.90
3134;DHT22;1577;49.912;10.924;2022-09-25T08:25:05;16.20;99.90
3134;DHT22;1577;49.912;10.924;2022-09-25T08:27:30;16.30;99.90
3134;DHT22;1577;49.912;10.924;2022-09-25T08:29:57;16.10;99.90
3134;DHT22;1577;49.912;10.924;2022-09-25T08:32:22;15.90;99.90
3134;DHT22;1577;49.912;10.924;2022-09-25T08:34:48;15.80;99.90
3134;DHT22;1577;49.912;10.924;2022-09-25T08:37:14;15.80;99.90
3134;DHT22;1577;49.912;10.924;2022-09-25T08:39:41;15.80;99.90
3134;DHT22;1577;49.912;10.924;2022-09-25T08:42:17;15.70;99.90
3134;DHT22;1577;49.912;10.924;2022-09-25T08:44:48;15.70;99.90
3134;DHT22;1577;49.912;10.924;2022-09-25T08:47:34;15.80;99.90
3134;DHT22;1577;49.912;10.924;2022-09-25T08:50:22;15.90;99.90
3134;DHT22;1577;49.912;10.924;2022-09-25T08:53:05;16.00;99.90
3134;DHT22;1577;49.912;10.924;2022-09-25T08:55:34;16.10;99.90
3134;DHT22;1577;49.912;10.924;2022-09-25T08:58:36;16.10;99.90
3134;DHT22;1577;49.912;10.924;2022-09-25T09:01:10;16.10;99.90
3134;DHT22;1577;49.912;10.924;2022-09-25T09:03:52;16.10;99.90
3134;DHT22;1577;49.912;10.924;2022-09-25T09:06:22;16.00;99.90
3134;DHT22;1577;49.912;10.924;2022-09-25T09:09:12;15.90;99.90
3134;DHT22;1577;49.912;10.924;2022-09-25T09:11:43;15.80;99.90
3134;DHT22;1577;49.912;10.924;2022-09-25T09:14:13;15.80;99.90
3134;DHT22;1577;49.912;10.924;2022-09-25T09:16:44;15.70;99.90
3134;DHT22;1577;49.912;10.924;2022-09-25T09:19:11;15.50;99.90
3134;DHT22;1577;49.912;10.924;2022-09-25T09:35:01;15.00;99.90
3134;DHT22;1577;49.912;10.924;2022-09-25T09:45:54;15.20;99.90
3134;DHT22;1577;49.912;10.924;2022-09-25T09:48:33;15.30;99.90
3134;DHT22;1577;49.912;10.924;2022-09-25T09:51:07;15.50;99.90
3134;DHT22;1577;49.912;10.924;2022-09-25T09:56:11;15.80;99.90
3134;DHT22;1577;49.912;10.924;2022-09-25T10:01:18;16.00;99.90
3134;DHT22;1577;49.912;10.924;2022-09-25T10:03:47;16.00;99.90
3134;DHT22;1577;49.912;10.924;2022-09-25T10:06:15;16.00;99.90
3134;DHT22;1577;49.912;10.924;2022-09-25T10:08:41;16.00;99.90
3134;DHT22;1577;49.912;10.924;2022-09-25T10:11:17;16.00;99.90
3134;DHT22;1577;49.912;10.924;2022-09-25T10:13:44;15.90;99.90
3134;DHT22;1577;49.912;10.924;2022-09-25T10:16:13;15.80;99.90
3134;DHT22;1577;49.912;10.924;2022-09-25T10:18:41;15.70;99.90
3134;DHT22;1577;49.912;10.924;2022-09-25T10:21:14;15.60;99.90
3134;DHT22;1577;49.912;10.924;2022-09-25T10:23:48;15.40;99.90
3134;DHT22;1577;49.912;10.924;2022-09-25T10:26:27;15.30;99.90
3134;DHT22;1577;49.912;10.924;2022-09-25T10:28:55;15.20;99.90
3134;DHT22;1577;49.912;10.924;2022-09-25T10:31:24;15.00;99.90
3134;DHT22;1577;49.912;10.924;2022-09-25T10:36:44;14.80;99.90
3134;DHT22;1577;49.912;10.924;2022-09-25T10:41:53;14.80;99.90
3134;DHT22;1577;49.912;10.924;2022-09-25T10:50:21;14.70;99.90
3134;DHT22;1577;49.912;10.924;2022-09-25T10:52:56;14.70;99.90
3134;DHT22;1577;49.912;10.924;2022-09-25T10:55:33;14.70;99.90
3134;DHT22;1577;49.912;10.924;2022-09-25T11:00:25;14.70;99.90
3134;DHT22;1577;49.912;10.924;2022-09-25T11:02:56;14.70;99.90
3134;DHT22;1577;49.912;10.924;2022-09-25T11:05:30;14.60;99.90
3134;DHT22;1577;49.912;10.924;2022-09-25T11:07:59;14.70;99.90
3134;DHT22;1577;49.912;10.924;2022-09-25T11:10:56;14.70;99.90
3134;DHT22;1577;49.912;10.924;2022-09-25T11:16:05;14.50;99.90
3134;DHT22;1577;49.912;10.924;2022-09-25T11:21:17;14.40;99.90
3134;DHT22;1577;49.912;10.924;2022-09-25T11:26:37;14.50;99.90
3134;DHT22;1577;49.912;10.924;2022-09-25T11:32:41;14.60;99.90
3134;DHT22;1577;49.912;10.924;2022-09-25T11:37:59;14.40;99.90
3134;DHT22;1577;49.912;10.924;2022-09-25T11:54:32;14.30;99.90
3134;DHT22;1577;49.912;10.924;2022-09-25T12:00:18;14.20;99.90
3134;DHT22;1577;49.912;10.924;2022-09-25T12:14:13;14.00;99.90
3134;DHT22;1577;49.912;10.924;2022-09-25T12:30:33;14.30;99.90
3134;DHT22;1577;49.912;10.924;2022-09-25T12:33:24;14.30;99.90
3134;DHT22;1577;49.912;10.924;2022-09-25T12:36:02;14.30;99.90
3134;DHT22;1577;49.912;10.924;2022-09-25T12:38:40;14.50;99.90
3134;DHT22;1577;49.912;10.924;2022-09-25T12:44:10;14.90;99.90
3134;DHT22;1577;49.912;10.924;2022-09-25T12:47:01;15.10;99.90
3134;DHT22;1577;49.912;10.924;2022-09-25T12:49:54;15.30;99.90
3134;DHT22;1577;49.912;10.924;2022-09-25T12:52:27;15.60;99.90
3134;DHT22;1577;49.912;10.924;2022-09-25T12:57:31;16.00;99.90
3134;DHT22;1577;49.912;10.924;2022-09-25T13:00:18;16.10;99.90
3134;DHT22;1577;49.912;10.924;2022-09-25T13:05:51;16.20;99.90
3134;DHT22;1577;49.912;10.924;2022-09-25T13:08:26;16.30;99.90
3134;DHT22;1577;49.912;10.924;2022-09-25T13:11:18;16.40;99.90
3134;DHT22;1577;49.912;10.924;2022-09-25T13:13:52;16.60;99.90
3134;DHT22;1577;49.912;10.924;2022-09-25T13:16:19;16.80;99.90
3134;DHT22;1577;49.912;10.924;2022-09-25T13:19:22;16.80;99.90
3134;DHT22;1577;49.912;10.924;2022-09-25T13:21:48;16.90;99.90
3134;DHT22;1577;49.912;10.924;2022-09-25T13:24:16;17.00;99.90
3134;DHT22;1577;49.912;10.924;2022-09-25T13:26:46;17.00;99.90
3134;DHT22;1577;49.912;10.924;2022-09-25T13:29:32;17.00;99.90
3134;DHT22;1577;49.912;10.924;2022-09-25T13:32:04;17.00;99.90
3134;DHT22;1577;49.912;10.924;2022-09-25T13:34:36;16.80;99.90
3134;DHT22;1577;49.912;10.924;2022-09-25T13:37:04;16.70;99.90
3134;DHT22;1577;49.912;10.924;2022-09-25T13:39:34;16.70;99.90
3134;DHT22;1577;49.912;10.924;2022-09-25T13:42:38;16.80;99.90
3134;DHT22;1577;49.912;10.924;2022-09-25T13:45:31;16.80;99.90
3134;DHT22;1577;49.912;10.924;2022-09-25T13:48:10;16.90;99.90
3134;DHT22;1577;49.912;10.924;2022-09-25T13:56:04;17.00;99.90
3134;DHT22;1577;49.912;10.924;2022-09-25T13:58:57;16.90;99.90
3134;DHT22;1577;49.912;10.924;2022-09-25T14:01:33;16.60;99.90
3134;DHT22;1577;49.912;10.924;2022-09-25T14:03:59;16.30;99.90
3134;DHT22;1577;49.912;10.924;2022-09-25T14:06:28;16.20;99.90
3134;DHT22;1577;49.912;10.924;2022-09-25T14:08:59;16.10;99.90
3134;DHT22;1577;49.912;10.924;2022-09-25T14:11:32;16.20;99.90
3134;DHT22;1577;49.912;10.924;2022-09-25T14:14:00;16.40;99.90
3134;DHT22;1577;49.912;10.924;2022-09-25T14:16:34;16.30;99.90
3134;DHT22;1577;49.912;10.924;2022-09-25T14:19:02;16.30;99.90
3134;DHT22;1577;49.912;10.924;2022-09-25T14:21:29;16.40;99.90
3134;DHT22;1577;49.912;10.924;2022-09-25T14:24:12;16.50;99.90
3134;DHT22;1577;49.912;10.924;2022-09-25T14:26:45;16.50;99.90
3134;DHT22;1577;49.912;10.924;2022-09-25T14:29:16;16.40;99.90
3134;DHT22;1577;49.912;10.924;2022-09-25T14:31:56;16.40;99.90
3134;DHT22;1577;49.912;10.924;2022-09-25T14:47:57;16.60;99.90
3134;DHT22;1577;49.912;10.924;2022-09-25T14:50:35;16.50;99.90
3134;DHT22;1577;49.912;10.924;2022-09-25T14:53:06;16.50;99.90
3134;DHT22;1577;49.912;10.924;2022-09-25T14:55:42;16.40;99.90
3134;DHT22;1577;49.912;10.924;2022-09-25T14:58:14;16.40;99.90
3134;DHT22;1577;49.912;10.924;2022-09-25T15:00:45;16.30;99.90
3134;DHT22;1577;49.912;10.924;2022-09-25T15:03:13;16.20;99.90
3134;DHT22;1577;49.912;10.924;2022-09-25T15:05:44;16.10;99.90
3134;DHT22;1577;49.912;10.924;2022-09-25T15:08:43;16.10;99.90
3134;DHT22;1577;49.912;10.924;2022-09-25T15:13:36;16.00;99.90
3134;DHT22;1577;49.912;10.924;2022-09-25T15:16:02;15.90;99.90
3134;DHT22;1577;49.912;10.924;2022-09-25T15:18:52;15.80;99.90
3134;DHT22;1577;49.912;10.924;2022-09-25T15:21:32;15.80;99.90
3134;DHT22;1577;49.912;10.924;2022-09-25T15:24:04;15.80;99.90
3134;DHT22;1577;49.912;10.924;2022-09-25T15:26:30;15.70;99.90
3134;DHT22;1577;49.912;10.924;2022-09-25T15:28:57;15.70;99.90
3134;DHT22;1577;49.912;10.924;2022-09-25T15:31:23;15.70;99.90
3134;DHT22;1577;49.912;10.924;2022-09-25T15:34:12;15.60;99.90
3134;DHT22;1577;49.912;10.924;2022-09-25T15:36:38;15.60;99.90
3134;DHT22;1577;49.912;10.924;2022-09-25T15:39:15;15.60;99.90
3134;DHT22;1577;49.912;10.924;2022-09-25T15:41:42;15.50;99.90
3134;DHT22;1577;49.912;10.924;2022-09-25T15:44:20;15.50;99.90
3134;DHT22;1577;49.912;10.924;2022-09-25T15:46:52;15.50;99.90
3134;DHT22;1577;49.912;10.924;2022-09-25T15:49:40;15.50;99.90
3134;DHT22;1577;49.912;10.924;2022-09-25T15:52:24;15.50;99.90
3134;DHT22;1577;49.912;10.924;2022-09-25T15:54:59;15.60;99.90
3134;DHT22;1577;49.912;10.924;2022-09-25T15:57:28;15.50;99.90
3134;DHT22;1577;49.912;10.924;2022-09-25T15:59:54;15.50;99.90
3134;DHT22;1577;49.912;10.924;2022-09-25T16:02:47;15.40;99.90
3134;DHT22;1577;49.912;10.924;2022-09-25T16:05:34;15.30;99.90
3134;DHT22;1577;49.912;10.924;2022-09-25T16:13:43;14.80;99.90
3134;DHT22;1577;49.912;10.924;2022-09-25T16:16:25;14.70;99.90
3134;DHT22;1577;49.912;10.924;2022-09-25T16:18:58;14.60;99.90
3134;DHT22;1577;49.912;10.924;2022-09-25T16:21:27;14.50;99.90
3134;DHT22;1577;49.912;10.924;2022-09-25T16:24:02;14.60;99.90
3134;DHT22;1577;49.912;10.924;2022-09-25T16:26:37;14.70;99.90
3134;DHT22;1577;49.912;10.924;2022-09-25T16:31:35;14.80;99.90
3134;DHT22;1577;49.912;10.924;2022-09-25T16:34:02;14.80;99.90
3134;DHT22;1577;49.912;10.924;2022-09-25T16:36:40;14.80;99.90
3134;DHT22;1577;49.912;10.924;2022-09-25T16:41:32;14.90;99.90
3134;DHT22;1577;49.912;10.924;2022-09-25T16:44:18;14.90;99.90
3134;DHT22;1577;49.912;10.924;2022-09-25T16:49:17;14.80;99.90
3134;DHT22;1577;49.912;10.924;2022-09-25T16:51:47;14.80;99.90
3134;DHT22;1577;49.912;10.924;2022-09-25T16:54:15;14.80;99.90
3134;DHT22;1577;49.912;10.924;2022-09-25T16:56:44;14.80;99.90
3134;DHT22;1577;49.912;10.924;2022-09-25T16:59:17;14.70;99.90
3134;DHT22;1577;49.912;10.924;2022-09-25T17:01:44;14.70;99.90
3134;DHT22;1577;49.912;10.924;2022-09-25T17:04:11;14.70;99.90
3134;DHT22;1577;49.912;10.924;2022-09-25T17:06:37;14.60;99.90
3134;DHT22;1577;49.912;10.924;2022-09-25T17:09:13;14.70;99.90
3134;DHT22;1577;49.912;10.924;2022-09-25T17:11:46;14.70;99.90
3134;DHT22;1577;49.912;10.924;2022-09-25T17:14:22;14.60;99.90
3134;DHT22;1577;49.912;10.924;2022-09-25T17:16:49;14.60;99.90
3134;DHT22;1577;49.912;10.924;2022-09-25T17:19:15;14.60;99.90
3134;DHT22;1577;49.912;10.924;2022-09-25T17:21:46;14.70;99.90
3134;DHT22;1577;49.912;10.924;2022-09-25T17:24:16;14.70;99.90
3134;DHT22;1577;49.912;10.924;2022-09-25T17:26:42;14.70;99.90
3134;DHT22;1577;49.912;10.924;2022-09-25T17:29:08;14.70;99.90
3134;DHT22;1577;49.912;10.924;2022-09-25T17:31:34;14.50;99.90
3134;DHT22;1577;49.912;10.924;2022-09-25T17:34:01;14.40;99.90
3134;DHT22;1577;49.912;10.924;2022-09-25T17:36:26;14.40;99.90
3134;DHT22;1577;49.912;10.924;2022-09-25T17:38:52;14.30;99.90
3134;DHT22;1577;49.912;10.924;2022-09-25T17:41:28;14.30;99.90
3134;DHT22;1577;49.912;10.924;2022-09-25T17:43:54;14.30;99.90
3134;DHT22;1577;49.912;10.924;2022-09-25T17:46:20;14.30;99.90
3134;DHT22;1577;49.912;10.924;2022-09-25T17:48:46;14.20;99.90
3134;DHT22;1577;49.912;10.924;2022-09-25T17:51:16;14.10;99.90
3134;DHT22;1577;49.912;10.924;2022-09-25T17:53:42;14.10;99.90
3134;DHT22;1577;49.912;10.924;2022-09-25T17:56:09;14.00;99.90
3134;DHT22;1577;49.912;10.924;2022-09-25T17:58:35;13.90;99.90
3134;DHT22;1577;49.912;10.924;2022-09-25T18:01:02;13.90;99.90
3134;DHT22;1577;49.912;10.924;2022-09-25T18:03:33;13.90;99.90
3134;DHT22;1577;49.912;10.924;2022-09-25T18:05:58;13.90;99.90
3134;DHT22;1577;49.912;10.924;2022-09-25T18:08:24;13.90;99.90
3134;DHT22;1577;49.912;10.924;2022-09-25T18:10:54;13.90;99.90
3134;DHT22;1577;49.912;10.924;2022-09-25T18:13:23;13.90;99.90
3134;DHT22;1577;49.912;10.924;2022-09-25T18:15:54;13.90;99.90
3134;DHT22;1577;49.912;10.924;2022-09-25T18:18:20;13.90;99.90
3134;DHT22;1577;49.912;10.924;2022-09-25T18:20:46;13.90;99.90
3134;DHT22;1577;49.912;10.924;2022-09-25T18:23:31;13.80;99.90
3134;DHT22;1577;49.912;10.924;2022-09-25T18:26:02;13.80;99.90
3134;DHT22;1577;49.912;10.924;2022-09-25T18:28:28;13.80;99.90
3134;DHT22;1577;49.912;10.924;2022-09-25T18:30:54;14.00;99.90
3134;DHT22;1577;49.912;10.924;2022-09-25T18:33:21;14.00;99.90
3134;DHT22;1577;49.912;10.924;2022-09-25T18:35:49;14.10;99.90
3134;DHT22;1577;49.912;10.924;2022-09-25T18:38:15;14.20;99.90
3134;DHT22;1577;49.912;10.924;2022-09-25T18:40:41;14.20;99.90
3134;DHT22;1577;49.912;10.924;2022-09-25T18:43:06;14.20;99.90
3134;DHT22;1577;49.912;10.924;2022-09-25T18:45:32;14.20;99.90
3134;DHT22;1577;49.912;10.924;2022-09-25T18:47:58;14.20;99.90
3134;DHT22;1577;49.912;10.924;2022-09-25T18:50:24;14.10;99.90
3134;DHT22;1577;49.912;10.924;2022-09-25T18:52:51;14.00;99.90
3134;DHT22;1577;49.912;10.924;2022-09-25T18:55:17;14.00;99.90
3134;DHT22;1577;49.912;10.924;2022-09-25T18:57:42;14.00;99.90
3134;DHT22;1577;49.912;10.924;2022-09-25T19:00:08;13.90;99.90
3134;DHT22;1577;49.912;10.924;2022-09-25T19:02:34;13.90;99.90
3134;DHT22;1577;49.912;10.924;2022-09-25T19:05:03;13.80;99.90
3134;DHT22;1577;49.912;10.924;2022-09-25T19:07:29;13.80;99.90
3134;DHT22;1577;49.912;10.924;2022-09-25T19:09:55;13.80;99.90
3134;DHT22;1577;49.912;10.924;2022-09-25T19:12:23;13.80;99.90
3134;DHT22;1577;49.912;10.924;2022-09-25T19:14:49;13.80;99.90
3134;DHT22;1577;49.912;10.924;2022-09-25T19:17:16;13.80;99.90
3134;DHT22;1577;49.912;10.924;2022-09-25T19:19:42;13.80;99.90
3134;DHT22;1577;49.912;10.924;2022-09-25T19:22:15;13.70;99.90
3134;DHT22;1577;49.912;10.924;2022-09-25T19:24:42;13.70;99.90
3134;DHT22;1577;49.912;10.924;2022-09-25T19:27:08;13.60;99.90
3134;DHT22;1577;49.912;10.924;2022-09-25T19:29:34;13.70;99.90
3134;DHT22;1577;49.912;10.924;2022-09-25T19:32:08;13.60;99.90
3134;DHT22;1577;49.912;10.924;2022-09-25T19:34:35;13.60;99.90
3134;DHT22;1577;49.912;10.924;2022-09-25T19:37:01;13.60;99.90
3134;DHT22;1577;49.912;10.924;2022-09-25T19:39:27;13.60;99.90
3134;DHT22;1577;49.912;10.924;2022-09-25T19:41:53;13.60;99.90
3134;DHT22;1577;49.912;10.924;2022-09-25T19:44:19;13.60;99.90
3134;DHT22;1577;49.912;10.924;2022-09-25T19:46:46;13.60;99.90
3134;DHT22;1577;49.912;10.924;2022-09-25T19:49:13;13.50;99.90
3134;DHT22;1577;49.912;10.924;2022-09-25T19:51:39;13.50;99.90
3134;DHT22;1577;49.912;10.924;2022-09-25T19:54:06;13.40;99.90
3134;DHT22;1577;49.912;10.924;2022-09-25T19:56:33;13.40;99.90
3134;DHT22;1577;49.912;10.924;2022-09-25T19:58:59;13.40;99.90
3134;DHT22;1577;49.912;10.924;2022-09-25T20:01:27;13.40;99.90
3134;DHT22;1577;49.912;10.924;2022-09-25T20:03:54;13.40;99.90
3134;DHT22;1577;49.912;10.924;2022-09-25T20:06:21;13.40;99.90
3134;DHT22;1577;49.912;10.924;2022-09-25T20:08:47;13.50;99.90
3134;DHT22;1577;49.912;10.924;2022-09-25T20:11:21;13.50;99.90
3134;DHT22;1577;49.912;10.924;2022-09-25T20:13:48;13.50;99.90
3134;DHT22;1577;49.912;10.924;2022-09-25T20:16:17;13.50;99.90
3134;DHT22;1577;49.912;10.924;2022-09-25T20:18:56;13.50;99.90
3134;DHT22;1577;49.912;10.924;2022-09-25T20:21:23;13.40;99.90
3134;DHT22;1577;49.912;10.924;2022-09-25T20:23:50;13.40;99.90
3134;DHT22;1577;49.912;10.924;2022-09-25T20:26:16;13.40;99.90
3134;DHT22;1577;49.912;10.924;2022-09-25T20:28:43;13.30;99.90
3134;DHT22;1577;49.912;10.924;2022-09-25T20:31:12;13.30;99.90
3134;DHT22;1577;49.912;10.924;2022-09-25T20:33:39;13.20;99.90
3134;DHT22;1577;49.912;10.924;2022-09-25T20:36:07;13.20;99.90
3134;DHT22;1577;49.912;10.924;2022-09-25T20:38:33;13.10;99.90
3134;DHT22;1577;49.912;10.924;2022-09-25T20:40:59;13.10;99.90
3134;DHT22;1577;49.912;10.924;2022-09-25T20:43:25;13.20;99.90
3134;DHT22;1577;49.912;10.924;2022-09-25T20:46:04;13.20;99.90
3134;DHT22;1577;49.912;10.924;2022-09-25T20:48:35;13.10;99.90
3134;DHT22;1577;49.912;10.924;2022-09-25T20:51:06;13.10;99.90
3134;DHT22;1577;49.912;10.924;2022-09-25T20:53:32;13.10;99.90
3134;DHT22;1577;49.912;10.924;2022-09-25T20:56:04;13.10;99.90
3134;DHT22;1577;49.912;10.924;2022-09-25T20:58:31;13.00;99.90
3134;DHT22;1577;49.912;10.924;2022-09-25T21:01:05;13.00;99.90
3134;DHT22;1577;49.912;10.924;2022-09-25T21:03:34;13.00;99.90
3134;DHT22;1577;49.912;10.924;2022-09-25T21:06:05;13.00;99.90
3134;DHT22;1577;49.912;10.924;2022-09-25T21:08:31;13.00;99.90
3134;DHT22;1577;49.912;10.924;2022-09-25T21:10:58;13.00;99.90
3134;DHT22;1577;49.912;10.924;2022-09-25T21:13:27;13.00;99.90
3134;DHT22;1577;49.912;10.924;2022-09-25T21:15:53;13.00;99.90
3134;DHT22;1577;49.912;10.924;2022-09-25T21:18:19;12.90;99.90
3134;DHT22;1577;49.912;10.924;2022-09-25T21:20:45;12.90;99.90
3134;DHT22;1577;49.912;10.924;2022-09-25T21:23:10;12.80;99.90
3134;DHT22;1577;49.912;10.924;2022-09-25T21:25:36;12.80;99.90
3134;DHT22;1577;49.912;10.924;2022-09-25T21:28:02;12.80;99.90
3134;DHT22;1577;49.912;10.924;2022-09-25T21:30:28;12.70;99.90
3134;DHT22;1577;49.912;10.924;2022-09-25T21:32:53;12.70;99.90
3134;DHT22;1577;49.912;10.924;2022-09-25T21:35:19;12.70;99.90
3134;DHT22;1577;49.912;10.924;2022-09-25T21:37:44;12.80;99.90
3134;DHT22;1577;49.912;10.924;2022-09-25T21:40:10;12.70;99.90
3134;DHT22;1577;49.912;10.924;2022-09-25T21:42:36;12.60;99.90